Time;durP1;ratioP1;P1;durP2;ratioP2;P2;SDS_P1;SDS_P2;PMS_P1;PMS_P2;Temp;Humidity;BMP_temperature;BMP_pressure;BME280_temperature;BME280_humidity;BME280_pressure;Samples;Min_cycle;Max_cycle;Signal;HPM_P1;HPM_P2
2022/05/05 00:02:10;;;;;;;3.20;3.00;;;;;;;14.75;84.65;99829.59;5073897;28;20200;-67
2022/05/05 00:04:38;;;;;;;3.10;2.90;;;;;;;14.73;84.74;99826.34;5073956;28;20192;-67
2022/05/05 00:07:05;;;;;;;13.60;12.03;;;;;;;14.65;85.46;99834.59;5073485;28;20241;-67
2022/05/05 00:09:32;;;;;;;18.63;16.60;;;;;;;14.59;85.90;99830.09;5073426;28;20710;-67
2022/05/05 00:14:43;;;;;;;4.23;4.03;;;;;;;14.55;86.46;99831.56;5073453;28;20234;-67
2022/05/05 00:17:11;;;;;;;4.13;3.87;;;;;;;14.52;86.29;99842.69;5073327;28;20228;-67
2022/05/05 00:19:41;;;;;;;4.07;3.67;;;;;;;14.49;85.79;99836.94;5073553;28;20195;-67
2022/05/05 00:22:09;;;;;;;3.60;3.40;;;;;;;14.46;86.28;99838.19;5073138;28;20582;-68
2022/05/05 00:24:37;;;;;;;4.13;3.90;;;;;;;14.41;86.60;99834.50;5074241;28;20194;-68
2022/05/05 00:27:04;;;;;;;3.57;3.27;;;;;;;14.39;88.08;99833.91;5073432;28;20222;-67
2022/05/05 00:29:31;;;;;;;3.80;3.60;;;;;;;14.37;87.37;99839.47;5073276;28;20285;-67
2022/05/05 00:31:57;;;;;;;3.70;3.50;;;;;;;14.37;87.58;99836.78;5073300;28;20188;-66
2022/05/05 00:34:24;;;;;;;3.77;3.57;;;;;;;14.31;87.30;99836.81;5073252;28;20192;-67
2022/05/05 00:36:52;;;;;;;4.03;3.83;;;;;;;14.17;87.45;99836.00;5073448;28;20199;-67
2022/05/05 00:39:19;;;;;;;3.77;3.07;;;;;;;14.20;88.04;99824.06;5072870;28;20660;-67
2022/05/05 00:41:47;;;;;;;4.10;3.47;;;;;;;14.23;88.63;99829.88;5073362;28;20255;-67
2022/05/05 00:44:15;;;;;;;6.50;3.80;;;;;;;14.25;88.35;99827.78;5073707;28;20192;-67
2022/05/05 00:46:48;;;;;;;4.30;3.90;;;;;;;14.18;89.47;99826.97;5072682;28;20200;-67
2022/05/05 00:49:15;;;;;;;6.40;4.17;;;;;;;14.09;88.49;99828.22;5072648;28;20698;-67
2022/05/05 00:51:42;;;;;;;4.30;3.90;;;;;;;13.97;88.84;99837.91;5073691;28;20295;-67
2022/05/05 00:54:10;;;;;;;4.10;3.80;;;;;;;13.97;89.92;99829.91;5072555;28;20283;-67
2022/05/05 00:56:37;;;;;;;4.43;4.00;;;;;;;14.02;90.10;99832.78;5073700;28;20191;-67
2022/05/05 00:59:06;;;;;;;4.33;3.93;;;;;;;14.01;89.40;99830.31;5073021;28;20254;-67
2022/05/05 01:01:33;;;;;;;5.03;4.37;;;;;;;14.05;90.09;99837.69;5072752;28;20282;-67
2022/05/05 01:03:59;;;;;;;4.97;4.47;;;;;;;14.03;89.75;99837.09;5073540;28;20196;-67
2022/05/05 01:06:26;;;;;;;4.50;4.10;;;;;;;14.03;89.89;99823.75;5072334;28;20697;-67
2022/05/05 01:08:53;;;;;;;6.80;4.33;;;;;;;13.97;90.33;99835.25;5072833;28;20270;-67
2022/05/05 01:11:21;;;;;;;6.97;4.10;;;;;;;13.93;90.37;99836.69;5072845;28;20246;-67
2022/05/05 01:13:47;;;;;;;5.00;4.13;;;;;;;13.81;90.02;99835.69;5072548;28;20289;-67
2022/05/05 01:16:16;;;;;;;4.20;3.90;;;;;;;13.78;90.20;99836.13;5072551;28;20191;-67
2022/05/05 01:18:42;;;;;;;4.53;4.23;;;;;;;13.75;91.63;99828.53;5072497;28;20199;-68
2022/05/05 01:21:10;;;;;;;4.63;4.23;;;;;;;13.74;91.34;99829.56;5073030;28;20223;-68
2022/05/05 01:23:38;;;;;;;5.00;4.30;;;;;;;13.75;91.00;99830.34;5072426;28;20246;-68
2022/05/05 01:28:47;;;;;;;5.27;4.27;;;;;;;13.68;90.60;99841.06;5049801;28;20251;-67
2022/05/05 01:31:13;;;;;;;4.20;4.00;;;;;;;13.67;89.77;99844.75;5072873;28;20192;-68
2022/05/05 01:33:40;;;;;;;5.00;4.43;;;;;;;13.67;90.38;99841.25;5072011;28;20197;-68
2022/05/05 01:36:08;;;;;;;4.87;4.57;;;;;;;13.60;89.43;99841.25;5072350;28;20203;-68
2022/05/05 01:38:37;;;;;;;4.63;4.33;;;;;;;13.59;90.08;99842.28;5072009;28;20678;-68
2022/05/05 01:41:06;;;;;;;3.70;3.50;;;;;;;13.57;89.88;99844.38;5072842;28;20274;-67
2022/05/05 01:43:33;;;;;;;4.80;3.83;;;;;;;13.50;90.02;99843.53;5071930;28;20279;-67
2022/05/05 01:46:01;;;;;;;4.53;4.23;;;;;;;13.44;89.47;99839.00;5072207;28;20300;-67
2022/05/05 01:48:28;;;;;;;4.43;4.03;;;;;;;13.40;89.45;99831.63;5072065;28;20230;-67
2022/05/05 01:50:55;;;;;;;5.10;4.70;;;;;;;13.40;89.83;99835.09;5072388;28;20249;-67
2022/05/05 01:53:21;;;;;;;5.83;5.30;;;;;;;13.39;89.53;99840.69;5072395;28;20196;-67
2022/05/05 01:55:48;;;;;;;6.20;5.67;;;;;;;13.38;89.78;99839.84;5073193;28;20214;-67
2022/05/05 01:58:16;;;;;;;6.67;6.00;;;;;;;13.37;89.32;99838.22;5075937;28;20675;-68
2022/05/05 02:00:43;;;;;;;13.93;6.23;;;;;;;13.36;88.99;99847.22;5076271;28;20246;-68
2022/05/05 02:03:13;;;;;;;20.03;5.90;;;;;;;13.36;88.82;99841.88;5076158;28;20541;-68
2022/05/05 02:05:41;;;;;;;12.80;5.93;;;;;;;13.35;88.59;99845.59;5076686;28;20278;-68
2022/05/05 02:08:08;;;;;;;7.30;5.30;;;;;;;13.32;88.84;99851.31;5076285;28;20227;-68
2022/05/05 02:10:35;;;;;;;8.70;5.97;;;;;;;13.31;89.14;99849.69;5075719;28;20195;-68
2022/05/05 02:13:02;;;;;;;6.70;5.50;;;;;;;13.31;88.81;99852.34;5076305;28;20195;-66
2022/05/05 02:15:30;;;;;;;5.80;5.40;;;;;;;13.29;88.70;99851.75;5076065;28;20180;-67
2022/05/05 02:17:57;;;;;;;7.50;4.90;;;;;;;13.27;88.70;99859.13;5075600;28;20670;-68
2022/05/05 02:20:23;;;;;;;9.43;5.30;;;;;;;13.25;88.99;99858.53;5076371;28;20273;-67
2022/05/05 02:22:50;;;;;;;5.53;5.00;;;;;;;13.22;88.87;99864.25;5075499;28;20193;-67
2022/05/05 02:25:17;;;;;;;8.20;5.23;;;;;;;13.11;90.18;99862.19;5075455;28;20195;-67
2022/05/05 02:27:48;;;;;;;6.63;4.70;;;;;;;13.06;89.81;99861.97;5075414;28;20733;-68
2022/05/05 02:30:15;;;;;;;6.50;4.97;;;;;;;13.06;89.86;99864.66;5075585;28;20310;-68
2022/05/05 02:32:43;;;;;;;5.80;4.53;;;;;;;13.07;89.48;99863.63;5075253;28;20202;-68
2022/05/05 02:35:10;;;;;;;5.10;4.63;;;;;;;13.08;89.60;99862.63;5075988;28;20249;-68
2022/05/05 02:40:21;;;;;;;7.03;4.40;;;;;;;13.03;89.98;99877.56;5075334;28;20230;-67
2022/05/05 02:42:47;;;;;;;8.37;4.40;;;;;;;12.99;90.46;99879.00;5075966;28;20192;-68
2022/05/05 02:45:14;;;;;;;7.37;4.63;;;;;;;12.95;90.86;99880.38;5075251;28;20192;-68
2022/05/05 02:47:42;;;;;;;6.67;4.53;;;;;;;12.91;91.27;99879.94;5075290;28;20199;-67
2022/05/05 02:50:09;;;;;;;5.80;4.80;;;;;;;12.89;91.13;99887.34;5074847;28;20647;-67
2022/05/05 02:52:36;;;;;;;5.47;4.90;;;;;;;12.88;91.07;99885.72;5075167;28;20617;-67
2022/05/05 02:55:02;;;;;;;4.50;4.10;;;;;;;12.86;90.56;99886.94;5075215;28;20192;-67
2022/05/05 02:57:29;;;;;;;6.80;4.83;;;;;;;12.75;89.86;99896.34;5075023;28;20738;-67
2022/05/05 02:59:55;;;;;;;5.23;4.70;;;;;;;12.66;90.86;99886.84;5074768;28;20225;-67
2022/05/05 03:02:23;;;;;;;6.27;4.50;;;;;;;12.65;90.77;99901.22;5075594;28;20225;-67
2022/05/05 03:04:52;;;;;;;6.57;4.20;;;;;;;12.54;91.31;99896.44;5074681;28;20227;-67
2022/05/05 03:07:19;;;;;;;3.87;3.47;;;;;;;12.44;90.91;99908.47;5075176;28;20192;-67
2022/05/05 03:09:45;;;;;;;4.37;4.00;;;;;;;12.35;90.92;99905.19;5074516;28;20603;-68
2022/05/05 03:12:12;;;;;;;4.27;3.97;;;;;;;12.36;91.79;99912.16;5074796;28;20257;-67
2022/05/05 03:14:39;;;;;;;4.50;4.30;;;;;;;12.42;91.36;99911.34;5075521;28;20234;-67
2022/05/05 03:17:06;;;;;;;4.40;4.10;;;;;;;12.38;90.91;99918.13;5075023;28;20205;-67
2022/05/05 03:19:33;;;;;;;4.10;3.90;;;;;;;12.44;90.90;99917.31;5074831;28;20566;-68
2022/05/05 03:22:01;;;;;;;4.47;4.27;;;;;;;12.49;90.76;99922.84;5074405;28;20720;-67
2022/05/05 03:24:28;;;;;;;5.00;4.67;;;;;;;12.46;90.59;99923.25;5074867;28;20190;-67
2022/05/05 03:26:55;;;;;;;4.77;4.30;;;;;;;12.31;90.96;99925.25;5074283;28;20195;-67
2022/05/05 03:29:21;;;;;;;4.73;4.33;;;;;;;12.35;91.25;99923.00;5074717;28;20226;-67
2022/05/05 03:31:48;;;;;;;5.50;5.10;;;;;;;12.39;91.58;99925.06;5075033;28;20241;-67
2022/05/05 03:34:14;;;;;;;5.77;5.10;;;;;;;12.40;91.73;99921.38;5074804;28;20191;-67
2022/05/05 03:36:41;;;;;;;5.03;4.73;;;;;;;12.32;91.09;99934.88;5074323;28;20252;-67
2022/05/05 03:39:09;;;;;;;5.80;5.30;;;;;;;12.33;91.06;99922.38;5074368;28;20203;-66
2022/05/05 03:41:36;;;;;;;8.63;5.57;;;;;;;12.33;90.39;99923.19;5073986;28;20195;-66
2022/05/05 03:44:05;;;;;;;6.53;6.07;;;;;;;12.32;90.34;99932.19;5073975;28;20686;-67
2022/05/05 03:46:32;;;;;;;6.40;5.80;;;;;;;12.33;90.61;99935.69;5073906;28;20666;-67
2022/05/05 03:48:59;;;;;;;6.73;6.03;;;;;;;12.33;90.02;99941.03;5073998;28;20225;-68
2022/05/05 03:51:25;;;;;;;9.07;6.60;;;;;;;12.36;89.80;99936.13;5073818;28;20198;-67
2022/05/05 03:53:52;;;;;;;8.13;6.10;;;;;;;12.38;90.33;99926.09;5074734;28;20194;-68
2022/05/05 03:56:20;;;;;;;7.40;6.70;;;;;;;12.74;88.95;99939.19;5073776;28;20223;-67
2022/05/05 03:58:47;;;;;;;7.37;6.77;;;;;;;13.32;86.76;99952.72;5074797;28;20200;-67
2022/05/05 04:01:14;;;;;;;7.10;6.50;;;;;;;13.94;83.90;99947.03;5074212;28;20195;-67
2022/05/05 04:03:43;;;;;;;8.83;6.37;;;;;;;14.55;79.29;99961.75;5073894;28;20188;-67
2022/05/05 04:06:10;;;;;;;6.37;5.77;;;;;;;15.11;76.39;99968.94;5074090;28;20279;-68
2022/05/05 04:08:38;;;;;;;6.93;5.93;;;;;;;15.44;74.14;99974.94;5074194;28;20196;-67
2022/05/05 04:11:05;;;;;;;7.10;6.57;;;;;;;15.85;72.24;99977.97;5073473;28;20657;-68
2022/05/05 04:13:33;;;;;;;5.40;5.00;;;;;;;16.32;70.33;99973.00;5073881;28;20228;-71
2022/05/05 04:16:00;;;;;;;5.33;5.03;;;;;;;16.57;68.91;99955.06;5074023;28;20537;-71
2022/05/05 04:18:27;;;;;;;9.20;5.70;;;;;;;17.33;70.28;99978.47;5072643;28;20749;-72
2022/05/05 04:20:54;;;;;;;6.67;5.73;;;;;;;18.10;64.31;99985.56;5073096;28;20736;-71
2022/05/05 04:23:21;;;;;;;11.67;5.43;;;;;;;19.26;61.10;99997.88;5073121;28;20195;-71
2022/05/05 04:25:49;;;;;;;7.13;4.87;;;;;;;20.08;57.10;99997.22;5073843;28;20600;-71
2022/05/05 04:28:17;;;;;;;12.50;5.37;;;;;;;20.50;55.04;100006.56;5072785;28;20198;-71
2022/05/05 04:30:45;;;;;;;11.83;5.23;;;;;;;20.62;55.34;100003.75;5073019;28;20281;-71
2022/05/05 04:33:13;;;;;;;12.03;4.57;;;;;;;21.30;53.92;100004.94;5071980;28;20209;-71
2022/05/05 04:35:40;;;;;;;10.93;3.63;;;;;;;21.83;54.28;99998.75;5072625;28;20210;-71
2022/05/05 04:38:07;;;;;;;6.50;4.23;;;;;;;22.44;52.92;99992.75;5073513;28;20188;-70
2022/05/05 04:40:34;;;;;;;11.50;4.17;;;;;;;23.48;48.76;100010.69;5072951;28;20200;-70
2022/05/05 04:43:01;;;;;;;9.77;3.97;;;;;;;24.43;45.44;99998.00;5072876;28;20196;-70
2022/05/05 04:45:27;;;;;;;4.97;3.83;;;;;;;25.10;42.10;99997.59;5071367;28;20226;-70
2022/05/05 04:47:56;;;;;;;6.37;3.33;;;;;;;25.42;39.61;99989.84;5071167;28;20346;-69
2022/05/05 04:50:23;;;;;;;4.20;3.30;;;;;;;25.23;40.65;99996.97;5071593;28;20221;-69
2022/05/05 04:52:50;;;;;;;7.40;4.60;;;;;;;25.63;39.92;99993.28;5070917;28;20205;-69
2022/05/05 04:55:17;;;;;;;5.47;3.20;;;;;;;26.07;39.74;99994.88;5070465;28;20191;-69
2022/05/05 04:57:44;;;;;;;5.67;3.30;;;;;;;26.42;37.45;99989.09;5070076;28;20195;-70
2022/05/05 05:00:11;;;;;;;7.30;3.27;;;;;;;26.79;37.90;99983.84;5069862;28;20732;-66
2022/05/05 05:02:38;;;;;;;6.60;3.00;;;;;;;27.19;36.99;99990.75;5071442;28;20253;-65
2022/05/05 05:05:07;;;;;;;10.20;2.87;;;;;;;27.95;36.22;99996.78;5071933;28;20192;-66
2022/05/05 05:07:34;;;;;;;4.63;2.87;;;;;;;28.15;34.95;99996.44;5071801;28;20188;-65
2022/05/05 05:10:01;;;;;;;5.30;2.73;;;;;;;28.69;33.96;100004.81;5071988;28;20230;-68
2022/05/05 05:12:28;;;;;;;4.63;2.07;;;;;;;29.17;33.14;100003.34;5070536;28;20261;-68
2022/05/05 05:15:04;;;;;;;5.33;2.80;;;;;;;29.79;32.22;99999.78;5070343;28;20772;-68
2022/05/05 05:17:30;;;;;;;7.30;2.97;;;;;;;29.24;32.11;99998.28;5065674;28;20191;-67
2022/05/05 05:19:57;;;;;;;10.07;2.93;;;;;;;29.39;33.18;99988.91;5068788;28;20208;-66
2022/05/05 05:22:26;;;;;;;4.30;2.77;;;;;;;29.52;32.64;99994.34;5065093;28;20231;-66
2022/05/05 05:24:52;;;;;;;10.87;3.80;;;;;;;29.67;33.85;99991.28;5069416;28;20306;-67
2022/05/05 05:27:19;;;;;;;5.60;2.43;;;;;;;29.80;31.05;100001.41;5067668;28;20203;-67
2022/05/05 05:29:46;;;;;;;2.80;1.83;;;;;;;29.37;31.89;99991.13;5070417;28;20219;-67
2022/05/05 05:32:14;;;;;;;7.37;2.77;;;;;;;30.05;31.71;99997.25;5064761;28;20200;-68
2022/05/05 05:34:41;;;;;;;6.50;2.53;;;;;;;30.13;31.71;99999.25;5070651;28;20192;-68
2022/05/05 05:37:08;;;;;;;2.40;2.10;;;;;;;30.06;30.14;100005.16;5070098;28;20202;-68
2022/05/05 05:39:37;;;;;;;5.27;2.53;;;;;;;29.41;32.30;100008.56;5070319;28;20257;-68
2022/05/05 05:42:06;;;;;;;6.07;2.30;;;;;;;28.81;32.93;100002.38;5068541;28;20196;-68
2022/05/05 05:44:32;;;;;;;2.07;1.80;;;;;;;28.96;33.38;100002.88;5069387;28;20196;-68
2022/05/05 05:46:59;;;;;;;4.07;2.50;;;;;;;29.22;32.42;100005.97;5069424;28;20547;-68
2022/05/05 05:49:26;;;;;;;2.30;2.20;;;;;;;29.60;31.50;100015.56;5068752;28;20223;-68
2022/05/05 05:51:52;;;;;;;3.83;2.23;;;;;;;29.64;30.79;100008.34;5068802;28;20726;-68
2022/05/05 05:54:19;;;;;;;3.20;2.07;;;;;;;30.01;31.32;100007.22;5069674;28;20280;-68
2022/05/05 05:56:47;;;;;;;2.50;2.30;;;;;;;29.68;30.74;100014.81;5069840;28;20204;-69
2022/05/05 05:59:14;;;;;;;3.70;2.00;;;;;;;29.85;31.31;100008.69;5069276;28;20637;-68
2022/05/05 06:04:25;;;;;;;2.70;2.50;;;;;;;29.35;31.76;100016.06;5069453;28;20187;-67
2022/05/05 06:06:52;;;;;;;3.10;2.80;;;;;;;28.77;32.63;100009.56;5070466;28;20192;-67
2022/05/05 06:09:18;;;;;;;2.20;2.00;;;;;;;28.76;33.07;100016.16;5066661;28;20253;-67
2022/05/05 06:11:46;;;;;;;2.23;2.13;;;;;;;28.52;33.88;100024.53;5068985;28;20209;-68
2022/05/05 06:14:14;;;;;;;2.93;2.60;;;;;;;28.22;34.41;100019.53;5069951;28;20691;-67
2022/05/05 06:16:40;;;;;;;2.67;1.83;;;;;;;27.74;34.81;100011.81;5070778;28;20196;-67
2022/05/05 06:19:07;;;;;;;2.17;2.03;;;;;;;27.41;36.98;100012.84;5070403;28;20227;-67
2022/05/05 06:21:34;;;;;;;9.43;2.70;;;;;;;27.82;35.77;100013.91;5071041;28;20237;-69
2022/05/05 06:24:00;;;;;;;8.60;3.10;;;;;;;28.42;35.01;100015.72;5070977;28;20192;-66
2022/05/05 06:26:27;;;;;;;8.57;2.63;;;;;;;28.68;33.27;100016.88;5071007;28;20265;-71
2022/05/05 06:28:56;;;;;;;7.90;2.37;;;;;;;28.49;34.35;100021.56;5071457;28;20196;-72
2022/05/05 06:31:23;;;;;;;5.90;2.37;;;;;;;27.89;35.93;100015.16;5071242;28;20289;-69
2022/05/05 06:33:50;;;;;;;7.17;3.03;;;;;;;28.31;34.83;100022.41;5071356;28;20192;-70
2022/05/05 06:36:17;;;;;;;8.77;3.00;;;;;;;28.36;34.61;100025.88;5071104;28;20306;-69
2022/05/05 06:38:43;;;;;;;12.73;3.70;;;;;;;28.53;34.29;100014.41;5069291;28;20664;-68
2022/05/05 06:41:11;;;;;;;13.83;3.40;;;;;;;28.69;33.13;100021.22;5069456;28;20192;-70
2022/05/05 06:43:38;;;;;;;4.70;2.73;;;;;;;27.98;33.79;100018.84;5073551;28;20543;-69
2022/05/05 06:46:06;;;;;;;5.83;2.97;;;;;;;27.30;36.69;100016.81;5073650;28;20256;-71
2022/05/05 06:48:33;;;;;;;7.47;2.70;;;;;;;27.55;35.59;100013.72;5073408;28;20192;-70
2022/05/05 06:51:00;;;;;;;3.53;3.33;;;;;;;27.67;35.21;100017.66;5071621;28;20277;-70
2022/05/05 06:53:26;;;;;;;4.33;2.50;;;;;;;27.32;36.37;100009.94;5071874;28;20223;-70
2022/05/05 06:55:55;;;;;;;4.93;2.77;;;;;;;27.78;35.65;100012.84;5071003;28;20192;-70
2022/05/05 06:58:22;;;;;;;4.43;2.87;;;;;;;27.92;34.63;100019.22;5071834;28;20196;-69
2022/05/05 07:03:43;;;;;;;3.47;2.83;;;;;;;27.76;34.99;100009.63;5072507;28;20185;-67
2022/05/05 07:06:10;;;;;;;3.23;2.43;;;;;;;27.42;36.70;100006.28;5073035;28;20192;-71
2022/05/05 07:11:21;;;;;;;2.70;2.50;;;;;;;26.99;36.02;100010.06;5093020;28;20229;-72
2022/05/05 07:13:48;;;;;;;9.03;3.17;;;;;;;26.77;36.61;100012.50;5093216;28;20227;-72
2022/05/05 07:16:14;;;;;;;2.93;2.53;;;;;;;26.18;36.81;100009.22;5093997;28;20739;-76
2022/05/05 07:18:42;;;;;;;13.13;3.90;;;;;;;26.06;39.24;100001.44;5081932;28;20242;-72
2022/05/05 07:21:09;;;;;;;8.70;3.10;;;;;;;26.59;38.54;100002.34;5074233;28;20196;-72
2022/05/05 07:23:36;;;;;;;9.90;3.27;;;;;;;27.00;36.96;100011.69;5073439;28;20195;-72
2022/05/05 07:26:02;;;;;;;10.83;3.37;;;;;;;27.23;35.30;100013.63;5073522;28;20544;-72
2022/05/05 07:28:29;;;;;;;4.90;2.53;;;;;;;27.15;35.94;100014.25;5072811;28;20192;-75
2022/05/05 07:30:56;;;;;;;10.80;3.10;;;;;;;27.29;36.29;100004.25;5072729;28;20220;-74
2022/05/05 07:33:24;;;;;;;2.13;2.03;;;;;;;27.17;34.94;100012.84;5073818;28;20200;-72
2022/05/05 07:35:53;;;;;;;6.00;2.47;;;;;;;27.50;35.46;100011.06;5073586;28;20241;-75
2022/05/05 07:38:19;;;;;;;19.87;2.60;;;;;;;27.71;34.23;100015.97;5073976;28;20249;-76
2022/05/05 07:40:46;;;;;;;2.03;1.93;;;;;;;28.05;33.02;100018.50;5074157;28;20253;-78
2022/05/05 07:43:13;;;;;;;7.63;2.10;;;;;;;28.43;32.65;100025.53;5074162;28;20574;-76
2022/05/05 07:45:39;;;;;;;17.70;3.17;;;;;;;28.70;32.01;100011.88;5074117;28;20254;-77
2022/05/05 07:48:07;;;;;;;2.83;2.17;;;;;;;28.80;32.19;100028.13;5073929;28;20191;-76
2022/05/05 07:50:34;;;;;;;6.60;2.50;;;;;;;28.34;33.71;100022.63;5073577;28;20691;-70
2022/05/05 07:53:02;;;;;;;1.90;1.80;;;;;;;28.40;32.28;100024.19;5072870;28;20188;-71
2022/05/05 07:55:29;;;;;;;7.57;2.30;;;;;;;28.01;33.84;100017.47;5073596;28;20200;-70
2022/05/05 07:57:57;;;;;;;2.23;2.07;;;;;;;27.78;33.42;100021.06;5073593;28;20192;-70
2022/05/05 08:00:23;;;;;;;2.77;1.90;;;;;;;27.90;33.25;100024.19;5073631;28;20196;-75
2022/05/05 08:02:50;;;;;;;2.83;2.10;;;;;;;27.39;34.61;100025.94;5072940;28;20580;-71
2022/05/05 08:05:17;;;;;;;60.43;6.27;;;;;;;27.45;35.04;100025.63;5073495;28;20284;-71
2022/05/05 08:07:47;;;;;;;3.30;2.00;;;;;;;27.68;34.30;100026.66;5069729;28;20279;-70
2022/05/05 08:10:15;;;;;;;17.27;2.93;;;;;;;27.56;33.18;100020.84;5072713;28;20790;-73
2022/05/05 08:12:42;;;;;;;12.37;2.87;;;;;;;27.43;34.68;100021.53;5071971;28;20246;-70
2022/05/05 08:15:10;;;;;;;4.37;2.00;;;;;;;27.67;35.11;100022.28;5072513;28;20635;-69
2022/05/05 08:17:37;;;;;;;1.83;1.73;;;;;;;27.78;33.92;100015.59;5071580;28;20187;-69
2022/05/05 08:20:05;;;;;;;8.70;2.10;;;;;;;27.86;34.33;100021.25;5051679;28;20250;-69
2022/05/05 08:22:32;;;;;;;9.50;2.40;;;;;;;28.19;33.84;100024.81;5051689;28;20251;-68
2022/05/05 08:30:28;;;;;;;7.53;2.60;;;;;;;28.54;31.33;100032.44;5051569;28;20219;-68
2022/05/05 08:32:55;;;;;;;10.10;2.70;;;;;;;28.55;33.06;100028.59;5052635;28;20250;-68
2022/05/05 08:35:23;;;;;;;5.53;3.97;;;;;;;28.75;32.18;100033.69;5053123;28;20201;-68
2022/05/05 08:49:36;;;;;;;3.97;2.67;;;;;;;30.04;28.88;100017.56;5151142;27;20543;-69
2022/05/05 08:52:05;;;;;;;1.90;1.80;;;;;;;29.92;29.29;100009.09;5150350;27;20201;-70
2022/05/05 08:54:33;;;;;;;2.40;2.27;;;;;;;29.98;29.27;100016.88;5150633;27;20193;-70
2022/05/05 08:57:01;;;;;;;3.63;2.90;;;;;;;29.73;29.53;100017.47;5134077;27;20214;-70
2022/05/05 08:59:28;;;;;;;15.70;2.53;;;;;;;29.03;29.93;99991.59;5143505;27;20257;-73
2022/05/05 09:01:55;;;;;;;5.20;1.60;;;;;;;28.44;31.44;99995.16;5150315;27;20189;-73
2022/05/05 09:04:22;;;;;;;3.87;1.93;;;;;;;28.45;30.31;100012.34;5148607;27;20288;-74
2022/05/05 09:06:52;;;;;;;12.40;2.67;;;;;;;28.23;31.19;100012.16;5150103;27;20194;-73
2022/05/05 09:09:24;;;;;;;4.70;1.80;;;;;;;28.13;30.38;100015.09;5150043;27;20195;-73
2022/05/05 09:12:13;;;;;;;3.80;2.17;;;;;;;28.21;31.88;100011.63;5150296;27;20177;-73
2022/05/05 09:14:43;;;;;;;8.77;2.07;;;;;;;28.59;30.57;100013.22;5129872;27;20194;-70
2022/05/05 09:17:13;;;;;;;2.07;1.97;;;;;;;28.88;30.03;100008.28;5129071;28;20219;-70
2022/05/05 09:19:43;;;;;;;6.53;2.33;;;;;;;28.95;30.04;100008.69;5128808;28;20201;-73
2022/05/05 09:22:12;;;;;;;6.33;2.60;;;;;;;28.76;29.10;100002.50;5129451;28;20186;-73
2022/05/05 09:24:43;;;;;;;2.67;1.73;;;;;;;28.42;30.88;100004.78;5127903;27;20209;-73
2022/05/05 09:27:32;;;;;;;9.37;2.93;;;;;;;28.13;31.04;100006.88;5131566;27;20193;-72
2022/05/05 09:30:01;;;;;;;16.13;3.30;;;;;;;28.44;30.86;100006.09;5143792;27;20201;-73
2022/05/05 09:32:29;;;;;;;2.07;1.97;;;;;;;28.69;30.14;100002.88;5149537;27;20193;-72
2022/05/05 09:34:57;;;;;;;5.63;2.30;;;;;;;28.91;30.20;100004.94;5149293;27;20233;-73
2022/05/05 09:37:25;;;;;;;6.80;2.20;;;;;;;28.95;29.31;100005.97;5149143;27;20650;-73
2022/05/05 09:39:56;;;;;;;2.40;2.20;;;;;;;26.47;31.31;99994.53;5149126;27;20197;-77
2022/05/05 09:42:40;;;;;;;2.27;1.90;;;;;;;26.33;32.33;99996.28;5148393;27;20267;-80
2022/05/05 09:45:13;;;;;;;3.30;2.20;;;;;;;26.87;31.87;99982.41;5148726;27;20189;-76
2022/05/05 09:47:39;;;;;;;1.67;1.60;;;;;;;27.34;31.52;99988.66;5137143;27;20229;-75
2022/05/05 09:50:07;;;;;;;2.70;2.20;;;;;;;27.69;30.01;99988.13;5115215;28;20251;-83
2022/05/05 09:58:08;;;;;;;2.63;2.10;;;;;;;28.60;26.88;99988.31;5113963;28;20225;-79
2022/05/05 10:00:45;;;;;;;2.30;2.20;;;;;;;27.89;28.74;99987.84;5140032;27;20279;-81
2022/05/05 10:06:03;;;;;;;2.63;2.40;;;;;;;27.63;28.63;99978.41;5154387;27;20663;-71
2022/05/05 10:08:38;;;;;;;2.23;2.13;;;;;;;27.49;27.92;99987.63;5153289;27;20283;-73
2022/05/05 10:11:07;;;;;;;1.90;1.80;;;;;;;27.69;27.23;99979.16;5153517;27;20192;-74
2022/05/05 10:13:37;;;;;;;5.47;2.37;;;;;;;27.46;27.49;99971.81;5143944;27;20280;-75
2022/05/05 10:16:05;;;;;;;4.63;2.27;;;;;;;27.28;28.02;99967.97;5135695;27;20203;-76
2022/05/05 10:18:35;;;;;;;3.60;3.10;;;;;;;26.92;29.68;99965.97;5133934;27;20660;-77
2022/05/05 10:21:02;;;;;;;3.27;2.97;;;;;;;27.35;28.73;99967.59;5130509;27;20201;-76
2022/05/05 10:23:42;;;;;;;2.80;2.50;;;;;;;27.74;27.46;99962.69;5135116;27;20757;-77
2022/05/05 10:26:11;;;;;;;7.47;2.40;;;;;;;27.93;27.28;99938.91;5134428;27;20182;-76
2022/05/05 10:28:40;;;;;;;12.13;2.93;;;;;;;28.27;26.96;99947.59;5134158;27;20251;-78
2022/05/05 10:31:11;;;;;;;3.83;2.50;;;;;;;28.25;27.74;99947.91;5134026;27;20190;-82
2022/05/05 10:34:00;;;;;;;4.97;2.10;;;;;;;28.10;26.86;99945.44;5134400;27;20688;-78
2022/05/05 10:36:28;;;;;;;11.40;2.67;;;;;;;28.08;27.63;99952.31;5133739;27;20269;-76
2022/05/05 10:38:57;;;;;;;8.17;2.30;;;;;;;28.30;27.43;99945.06;5134147;27;20681;-79
2022/05/05 10:41:51;;;;;;;4.23;1.87;;;;;;;28.33;26.47;99946.38;5133450;27;20263;-76
2022/05/05 10:44:27;;;;;;;2.80;2.60;;;;;;;28.53;26.93;99943.31;5120438;27;20688;-76
2022/05/05 10:47:01;;;;;;;3.07;2.80;;;;;;;28.52;26.88;99950.72;5132913;27;20182;-75
2022/05/05 10:49:45;;;;;;;17.07;3.00;;;;;;;28.58;26.84;99945.97;5134380;27;20317;-76
2022/05/05 10:52:33;;;;;;;2.87;2.10;;;;;;;28.65;26.28;99951.81;5133025;27;20266;-75
2022/05/05 10:55:26;;;;;;;4.63;2.77;;;;;;;28.40;26.88;99927.69;5134168;27;20727;-76
2022/05/05 10:57:53;;;;;;;2.77;2.57;;;;;;;28.60;26.36;99943.72;5135234;27;20288;-78
2022/05/05 11:00:22;;;;;;;2.60;2.50;;;;;;;28.69;26.59;99936.44;5134354;27;20284;-79
2022/05/05 11:03:14;;;;;;;3.13;2.60;;;;;;;28.41;27.34;99951.19;5133976;27;20273;-80
2022/05/05 11:05:41;;;;;;;4.23;2.53;;;;;;;27.98;27.45;99941.56;5134104;27;20193;-77
2022/05/05 11:08:33;;;;;;;4.17;2.50;;;;;;;28.11;27.52;99954.44;5134224;27;20186;-77
2022/05/05 11:13:46;;;;;;;9.87;2.80;;;;;;;28.17;27.92;99956.00;5144591;27;20189;-78
2022/05/05 11:22:06;;;;;;;4.03;2.97;;;;;;;28.39;28.11;99950.66;5131829;27;20327;-78
2022/05/05 11:24:33;;;;;;;7.73;2.93;;;;;;;28.31;27.98;99952.19;5133783;27;20202;-74
2022/05/05 11:27:01;;;;;;;6.10;2.73;;;;;;;28.10;29.66;99944.63;5132428;27;20750;-73
2022/05/05 11:29:30;;;;;;;2.43;2.30;;;;;;;27.71;29.10;99963.25;5133969;27;20243;-76
2022/05/05 11:31:57;;;;;;;2.70;2.50;;;;;;;27.66;28.84;99966.06;5133481;27;20619;-73
2022/05/05 11:34:32;;;;;;;2.77;2.60;;;;;;;27.52;29.31;99966.00;5133645;27;20276;-74
2022/05/05 11:36:59;;;;;;;3.80;2.47;;;;;;;27.57;29.10;99959.66;5132132;27;20363;-74
2022/05/05 11:39:26;;;;;;;2.90;2.60;;;;;;;27.64;29.80;99957.38;5129892;27;20444;-78
2022/05/05 11:42:02;;;;;;;3.23;2.53;;;;;;;27.78;29.53;99963.72;5131325;27;20196;-80
2022/05/05 11:44:28;;;;;;;2.47;2.30;;;;;;;28.09;28.69;99959.41;5130829;27;20684;-75
2022/05/05 11:46:57;;;;;;;4.73;2.13;;;;;;;28.14;28.85;99965.56;5130624;27;20242;-75
2022/05/05 11:49:32;;;;;;;2.33;2.23;;;;;;;28.13;28.53;99965.91;5132308;27;20725;-79
2022/05/05 11:52:04;;;;;;;2.40;2.30;;;;;;;28.37;28.66;99952.88;5132995;27;20185;-76
2022/05/05 11:54:32;;;;;;;2.77;2.57;;;;;;;28.16;28.23;99954.34;5129273;27;20186;-76
2022/05/05 11:57:02;;;;;;;2.80;2.60;;;;;;;27.92;28.62;99968.16;5131537;27;20186;-74
2022/05/05 12:02:16;;;;;;;3.57;2.33;;;;;;;28.16;27.84;99959.81;5133812;27;20652;-74
2022/05/05 12:04:44;;;;;;;2.73;2.10;;;;;;;28.13;27.53;99954.97;5142889;27;20242;-72
2022/05/05 12:07:19;;;;;;;2.67;2.40;;;;;;;28.33;27.69;99955.41;5132644;27;20197;-74
2022/05/05 12:09:47;;;;;;;4.17;2.33;;;;;;;28.43;27.08;99954.44;5132484;27;20217;-73
2022/05/05 12:18:02;;;;;;;2.60;2.10;;;;;;;27.86;27.35;99883.88;5145859;27;20200;-74
2022/05/05 12:20:39;;;;;;;2.97;2.30;;;;;;;27.90;27.41;99895.81;5141375;27;20284;-75
2022/05/05 12:23:21;;;;;;;2.67;2.07;;;;;;;27.76;27.58;99878.56;5132074;27;20197;-77
2022/05/05 12:25:49;;;;;;;2.37;2.27;;;;;;;28.23;27.03;99960.25;5130251;27;20553;-75
2022/05/05 12:28:28;;;;;;;2.10;2.00;;;;;;;28.22;27.33;99953.16;5130807;27;20665;-76
2022/05/05 12:30:55;;;;;;;6.27;2.30;;;;;;;28.14;27.89;99954.66;5132192;27;20182;-72
2022/05/05 12:33:37;;;;;;;4.27;2.83;;;;;;;27.96;27.80;99943.75;5132203;27;20194;-73
2022/05/05 12:36:12;;;;;;;2.43;2.33;;;;;;;27.97;27.80;99943.47;5133067;27;20531;-76